Time;durP1;ratioP1;P1;durP2;ratioP2;P2;SDS_P1;SDS_P2;PMS_P1;PMS_P2;Temp;Humidity;BMP_temperature;BMP_pressure;BME280_temperature;BME280_humidity;BME280_pressure;Samples;Min_cycle;Max_cycle;Signal;HPM_P1;HPM_P2
2023/06/24 00:01:52;;;;;;;0.80;0.80;;;14.80;53.60;;;;;;5017633;28;20685;-66
2023/06/24 00:04:20;;;;;;;3.97;1.10;;;15.00;54.60;;;;;;5016294;28;20230;-67
2023/06/24 00:06:48;;;;;;;1.23;1.10;;;15.20;53.90;;;;;;5013679;28;20553;-68
2023/06/24 00:09:15;;;;;;;1.57;1.00;;;15.10;53.40;;;;;;5011181;28;20177;-66
2023/06/24 00:11:42;;;;;;;1.10;0.90;;;15.20;53.50;;;;;;5008839;28;20187;-66
2023/06/24 00:14:10;;;;;;;1.07;1.00;;;15.20;53.50;;;;;;5010148;28;20185;-67
2023/06/24 00:16:38;;;;;;;1.73;1.10;;;15.30;53.90;;;;;;5012072;28;20235;-65
2023/06/24 00:19:06;;;;;;;2.70;1.00;;;15.40;53.20;;;;;;5009379;28;20283;-68
2023/06/24 00:21:33;;;;;;;4.33;1.00;;;15.50;53.60;;;;;;5012789;28;20203;-66
2023/06/24 00:24:04;;;;;;;1.20;1.00;;;15.30;52.70;;;;;;5014680;28;20199;-66
2023/06/24 00:26:32;;;;;;;2.63;1.20;;;15.30;52.80;;;;;;4994993;28;20181;-67
2023/06/24 00:28:59;;;;;;;2.60;1.10;;;15.30;52.60;;;;;;5015463;28;20185;-67
2023/06/24 00:31:27;;;;;;;1.83;1.00;;;15.40;53.50;;;;;;5012562;28;20244;-65
2023/06/24 00:33:54;;;;;;;1.73;1.03;;;15.50;52.70;;;;;;5015214;28;20233;-66
2023/06/24 00:36:22;;;;;;;1.73;1.00;;;15.50;52.70;;;;;;5012720;28;20647;-66
2023/06/24 00:38:49;;;;;;;1.70;1.00;;;15.50;51.20;;;;;;5013264;28;20223;-67
2023/06/24 00:41:21;;;;;;;3.10;1.17;;;15.60;50.40;;;;;;5013185;28;20182;-64
2023/06/24 00:43:48;;;;;;;1.07;0.80;;;15.70;50.00;;;;;;5013255;28;20193;-66
2023/06/24 00:46:15;;;;;;;1.30;0.90;;;15.70;49.90;;;;;;5010314;28;20259;-67
2023/06/24 00:48:43;;;;;;;2.53;0.93;;;15.90;50.10;;;;;;5013600;28;20729;-67
2023/06/24 00:51:10;;;;;;;2.93;0.87;;;15.90;49.60;;;;;;5012877;28;20207;-66
2023/06/24 00:53:38;;;;;;;2.17;1.00;;;16.10;49.50;;;;;;5014680;28;20177;-65
2023/06/24 00:56:06;;;;;;;1.83;0.90;;;16.30;49.20;;;;;;5012746;28;20196;-68
2023/06/24 00:58:37;;;;;;;0.80;0.80;;;16.30;46.80;;;;;;5010757;28;20222;-67
2023/06/24 01:01:05;;;;;;;1.03;0.93;;;16.30;47.20;;;;;;5012359;28;20177;-66
2023/06/24 01:03:33;;;;;;;1.20;0.80;;;16.40;45.50;;;;;;5006355;28;20282;-68
2023/06/24 01:06:00;;;;;;;1.57;0.90;;;16.40;45.80;;;;;;5013155;28;20192;-66
2023/06/24 01:08:28;;;;;;;1.97;1.07;;;16.40;45.30;;;;;;5017008;28;20188;-66
2023/06/24 01:10:55;;;;;;;3.13;1.43;;;16.50;45.70;;;;;;5012263;28;20194;-67
2023/06/24 01:13:22;;;;;;;1.93;1.00;;;16.50;45.70;;;;;;5021484;28;20197;-65
2023/06/24 01:15:50;;;;;;;2.13;1.10;;;16.70;45.60;;;;;;5008438;28;20230;-65
2023/06/24 01:18:44;;;;;;;0.83;0.73;;;16.80;45.70;;;;;;5016703;28;20310;-65
2023/06/24 01:21:34;;;;;;;0.90;0.70;;;16.80;45.60;;;;;;5018844;28;20191;-65
2023/06/24 01:24:16;;;;;;;0.70;0.70;;;16.90;44.40;;;;;;5015641;28;20262;-67
2023/06/24 01:27:14;;;;;;;1.43;0.90;;;16.90;45.20;;;;;;5012479;28;20191;-64
2023/06/24 01:30:29;;;;;;;1.13;1.00;;;17.20;44.30;;;;;;5020231;28;20204;-64
2023/06/24 01:33:03;;;;;;;1.37;0.90;;;17.20;43.70;;;;;;5015811;28;20205;-64
2023/06/24 01:35:34;;;;;;;1.90;0.70;;;17.30;43.20;;;;;;5015266;28;20720;-64
2023/06/24 01:38:08;;;;;;;1.33;0.73;;;17.30;42.60;;;;;;5012883;28;20310;-66
2023/06/24 01:40:45;;;;;;;1.10;0.80;;;17.30;42.40;;;;;;5017927;28;20175;-65
2023/06/24 01:43:14;;;;;;;0.90;0.60;;;17.30;42.40;;;;;;5015571;28;20191;-66
2023/06/24 01:45:48;;;;;;;3.60;0.90;;;17.60;42.00;;;;;;5018302;28;20181;-67
2023/06/24 01:48:16;;;;;;;1.80;0.80;;;17.60;42.50;;;;;;5017150;28;20762;-66
2023/06/24 01:50:59;;;;;;;2.10;0.80;;;17.80;43.00;;;;;;5022634;28;20222;-66
2023/06/24 01:53:29;;;;;;;2.03;0.90;;;17.80;42.20;;;;;;5029005;28;20196;-67
2023/06/24 01:55:59;;;;;;;0.70;0.70;;;17.90;42.50;;;;;;5021646;28;20717;-68
2023/06/24 01:58:27;;;;;;;3.07;1.00;;;18.00;43.20;;;;;;5017518;28;20273;-70
2023/06/24 02:00:56;;;;;;;1.37;0.80;;;18.10;42.80;;;;;;5022373;28;20196;-65
2023/06/24 02:03:24;;;;;;;0.87;0.63;;;18.20;42.30;;;;;;5017990;28;20219;-66
2023/06/24 02:05:53;;;;;;;1.37;0.80;;;18.00;41.90;;;;;;5020715;28;20585;-66
2023/06/24 02:08:23;;;;;;;3.50;0.70;;;18.00;42.20;;;;;;5018355;28;20216;-65
2023/06/24 02:10:51;;;;;;;1.33;0.90;;;18.10;42.50;;;;;;5020466;28;20299;-66
2023/06/24 02:13:20;;;;;;;1.47;0.70;;;18.20;42.40;;;;;;5013318;28;20184;-67
2023/06/24 02:15:48;;;;;;;0.60;0.60;;;18.20;42.10;;;;;;5021410;28;20189;-67
2023/06/24 02:18:17;;;;;;;0.90;0.83;;;18.30;42.00;;;;;;5026894;28;20259;-66
2023/06/24 02:20:45;;;;;;;0.97;0.60;;;18.30;41.80;;;;;;5023081;28;20247;-65
2023/06/24 02:23:13;;;;;;;1.73;0.80;;;18.30;42.60;;;;;;5015597;28;20708;-66
2023/06/24 02:25:42;;;;;;;1.93;0.70;;;18.70;41.00;;;;;;5020314;28;20650;-68
2023/06/24 02:28:10;;;;;;;0.90;0.80;;;18.80;40.90;;;;;;5016377;28;20295;-66
2023/06/24 02:30:39;;;;;;;1.10;0.70;;;18.90;39.90;;;;;;5017052;28;20620;-64
2023/06/24 02:33:06;;;;;;;1.67;0.70;;;18.80;39.70;;;;;;5022542;28;20256;-65
2023/06/24 02:35:34;;;;;;;1.23;0.77;;;18.60;40.70;;;;;;5019628;28;20589;-64
2023/06/24 02:38:03;;;;;;;3.30;0.70;;;18.70;40.40;;;;;;5015068;28;20220;-63
2023/06/24 02:40:30;;;;;;;1.60;0.83;;;18.80;40.60;;;;;;5020350;28;20186;-65
2023/06/24 02:42:58;;;;;;;1.20;0.80;;;18.90;40.40;;;;;;5011487;28;20197;-66
2023/06/24 02:45:27;;;;;;;0.80;0.70;;;18.80;40.50;;;;;;4999468;28;20602;-66
2023/06/24 02:47:56;;;;;;;1.10;0.70;;;19.00;41.10;;;;;;5013074;28;20523;-69
2023/06/24 02:50:25;;;;;;;1.27;0.80;;;18.90;39.80;;;;;;5021984;28;20185;-66
2023/06/24 02:52:53;;;;;;;2.40;0.80;;;19.00;40.80;;;;;;5010422;28;20335;-65
2023/06/24 02:55:21;;;;;;;5.07;0.80;;;18.90;40.20;;;;;;5016044;28;20189;-65
2023/06/24 02:57:50;;;;;;;1.30;0.63;;;18.80;41.20;;;;;;5011494;28;20239;-66
2023/06/24 03:00:18;;;;;;;1.57;0.80;;;18.70;40.80;;;;;;5020651;28;20193;-66
2023/06/24 03:02:47;;;;;;;3.07;0.87;;;18.50;40.30;;;;;;5012638;28;20196;-67
2023/06/24 03:05:16;;;;;;;1.57;0.77;;;18.40;40.80;;;;;;5017692;28;20217;-65
2023/06/24 03:07:44;;;;;;;3.57;0.73;;;18.50;41.80;;;;;;5007920;28;20193;-66
2023/06/24 03:10:11;;;;;;;3.07;0.77;;;18.70;41.80;;;;;;5015694;28;20216;-67
2023/06/24 03:12:39;;;;;;;2.43;0.80;;;18.80;41.10;;;;;;4995275;28;20251;-66
2023/06/24 03:15:06;;;;;;;1.60;1.17;;;18.60;41.40;;;;;;5016504;28;20194;-65
2023/06/24 03:17:34;;;;;;;1.13;0.60;;;18.60;41.40;;;;;;5016467;28;20323;-67
2023/06/24 03:20:01;;;;;;;1.33;0.90;;;18.50;40.40;;;;;;5011794;28;20605;-69
2023/06/24 03:22:29;;;;;;;1.13;0.70;;;18.60;41.50;;;;;;5012007;28;20189;-66
2023/06/24 03:24:56;;;;;;;1.10;0.87;;;18.80;40.80;;;;;;5010556;28;20185;-67
2023/06/24 03:27:24;;;;;;;1.30;0.90;;;18.80;40.60;;;;;;5015918;28;20548;-66
2023/06/24 03:29:51;;;;;;;1.40;0.70;;;18.90;40.50;;;;;;5016679;28;20235;-66
2023/06/24 03:32:18;;;;;;;2.60;0.80;;;19.10;40.70;;;;;;5013516;28;20197;-66
2023/06/24 03:34:46;;;;;;;5.10;0.80;;;19.40;39.80;;;;;;5021747;28;20266;-65
2023/06/24 03:37:13;;;;;;;2.10;0.80;;;19.50;39.80;;;;;;5013839;28;20212;-67
2023/06/24 03:39:40;;;;;;;1.60;0.60;;;19.80;38.20;;;;;;5019269;28;20188;-69
2023/06/24 03:42:08;;;;;;;1.27;0.70;;;20.00;38.50;;;;;;5015544;28;20216;-68
2023/06/24 03:44:35;;;;;;;0.97;0.60;;;20.40;37.70;;;;;;5018927;28;20520;-66
2023/06/24 03:47:03;;;;;;;2.83;0.70;;;20.80;37.00;;;;;;5014028;28;20182;-66
2023/06/24 03:49:30;;;;;;;1.23;0.70;;;21.30;34.80;;;;;;5012769;28;20189;-68
2023/06/24 03:51:57;;;;;;;0.80;0.50;;;21.00;35.60;;;;;;5016178;28;20263;-69
2023/06/24 03:54:24;;;;;;;0.97;0.80;;;21.20;35.20;;;;;;5016257;28;20328;-66
2023/06/24 03:56:52;;;;;;;1.03;0.67;;;21.30;35.30;;;;;;4994436;28;20639;-66
2023/06/24 03:59:20;;;;;;;2.07;0.70;;;21.30;35.30;;;;;;5012939;28;20185;-69
2023/06/24 04:01:47;;;;;;;0.50;0.50;;;21.50;34.90;;;;;;5008363;28;20822;-67
2023/06/24 04:04:14;;;;;;;1.20;0.60;;;21.60;34.10;;;;;;5009105;28;20240;-66
2023/06/24 04:06:42;;;;;;;3.47;0.60;;;21.60;34.10;;;;;;5014772;28;20189;-67
2023/06/24 04:09:09;;;;;;;0.77;0.60;;;21.80;34.50;;;;;;5018835;28;20225;-69
2023/06/24 04:11:37;;;;;;;0.73;0.40;;;22.30;33.20;;;;;;5013572;28;20193;-69
2023/06/24 04:14:06;;;;;;;0.73;0.60;;;22.10;33.90;;;;;;5012560;28;20238;-67
2023/06/24 04:16:34;;;;;;;3.07;0.77;;;22.40;32.80;;;;;;5010900;28;20205;-66
2023/06/24 04:19:01;;;;;;;0.80;0.50;;;22.80;32.20;;;;;;5012275;28;20530;-67
2023/06/24 04:21:29;;;;;;;1.67;0.80;;;22.50;32.10;;;;;;5014733;28;20193;-66
2023/06/24 04:23:56;;;;;;;1.53;0.70;;;22.30;32.60;;;;;;5017808;28;20188;-67
2023/06/24 04:26:23;;;;;;;0.53;0.50;;;22.30;33.30;;;;;;5016580;28;20275;-69
2023/06/24 04:28:51;;;;;;;1.03;0.57;;;22.00;34.30;;;;;;5017699;28;20294;-68
2023/06/24 04:31:18;;;;;;;0.63;0.60;;;22.10;34.10;;;;;;5014455;28;20185;-66
2023/06/24 04:33:45;;;;;;;2.57;0.60;;;22.20;34.50;;;;;;5018708;28;20193;-68
2023/06/24 04:36:13;;;;;;;0.60;0.60;;;22.20;34.80;;;;;;5013667;28;20197;-66
2023/06/24 04:38:40;;;;;;;1.63;0.70;;;22.80;33.40;;;;;;5008737;28;20214;-66
2023/06/24 04:41:07;;;;;;;2.07;0.67;;;22.50;33.60;;;;;;5012722;28;20181;-66
2023/06/24 04:43:35;;;;;;;1.20;0.50;;;22.30;33.50;;;;;;5013335;28;20239;-69
2023/06/24 04:46:03;;;;;;;1.40;0.60;;;22.40;33.20;;;;;;5009428;28;20243;-69
2023/06/24 04:48:30;;;;;;;2.67;0.80;;;22.40;33.20;;;;;;5016666;28;20252;-69
2023/06/24 04:50:58;;;;;;;0.97;0.63;;;22.80;33.20;;;;;;5014065;28;20267;-68
2023/06/24 04:53:25;;;;;;;0.80;0.63;;;22.90;31.70;;;;;;5008763;28;20667;-69
2023/06/24 04:55:52;;;;;;;1.97;0.60;;;23.20;30.70;;;;;;5009282;28;20725;-69
2023/06/24 04:58:19;;;;;;;0.80;0.60;;;23.10;31.00;;;;;;5014028;28;20217;-69
2023/06/24 05:00:47;;;;;;;1.53;0.70;;;23.00;31.20;;;;;;5012771;28;20228;-66
2023/06/24 05:03:14;;;;;;;2.50;0.60;;;22.60;32.70;;;;;;5012726;28;20196;-66
2023/06/24 05:05:41;;;;;;;0.50;0.40;;;22.60;33.30;;;;;;5015648;28;20192;-65
2023/06/24 05:08:09;;;;;;;3.20;0.73;;;23.10;32.70;;;;;;5014599;28;20215;-66
2023/06/24 05:10:36;;;;;;;2.73;0.97;;;22.80;33.10;;;;;;5018960;28;20271;-66
2023/06/24 05:13:03;;;;;;;0.97;0.73;;;23.10;33.20;;;;;;5014649;28;20197;-67
2023/06/24 05:15:31;;;;;;;3.07;0.70;;;23.20;32.80;;;;;;5009174;28;20176;-66
2023/06/24 05:17:58;;;;;;;1.33;0.60;;;23.20;32.30;;;;;;5012825;28;20217;-68
2023/06/24 05:20:26;;;;;;;2.50;0.70;;;23.30;31.80;;;;;;5015152;28;20259;-67
2023/06/24 05:22:53;;;;;;;0.87;0.60;;;22.90;32.20;;;;;;5013477;28;20192;-68
2023/06/24 05:25:20;;;;;;;0.80;0.63;;;23.20;31.50;;;;;;5013708;28;20639;-67
2023/06/24 05:27:48;;;;;;;1.70;0.90;;;23.60;30.60;;;;;;5000019;28;20189;-67
2023/06/24 05:30:15;;;;;;;1.00;0.70;;;24.10;30.50;;;;;;5006939;28;20174;-69
2023/06/24 05:32:42;;;;;;;1.47;0.80;;;24.30;29.90;;;;;;5007454;28;20573;-68
2023/06/24 05:35:10;;;;;;;1.97;0.93;;;24.40;29.40;;;;;;5016305;28;20938;-66
2023/06/24 05:37:38;;;;;;;1.70;1.27;;;24.10;29.60;;;;;;5006242;28;20350;-66
2023/06/24 05:40:06;;;;;;;1.13;0.70;;;24.00;30.30;;;;;;5006891;28;20180;-67
2023/06/24 05:42:33;;;;;;;1.67;0.83;;;23.90;30.60;;;;;;5012139;28;20323;-66
2023/06/24 05:45:01;;;;;;;1.57;1.03;;;24.30;29.70;;;;;;5016570;28;20216;-66
2023/06/24 05:47:28;;;;;;;1.03;0.70;;;24.30;29.30;;;;;;5015706;28;20186;-65
2023/06/24 05:49:55;;;;;;;1.90;0.97;;;23.80;30.60;;;;;;5010731;28;20654;-66
2023/06/24 05:52:23;;;;;;;1.07;0.80;;;23.50;30.50;;;;;;5012201;28;20193;-65
2023/06/24 05:54:51;;;;;;;1.53;1.10;;;23.30;31.50;;;;;;5014733;28;21771;-65
2023/06/24 05:57:18;;;;;;;1.40;0.73;;;23.20;32.20;;;;;;5017576;28;20252;-64
2023/06/24 05:59:46;;;;;;;2.23;0.87;;;23.50;32.00;;;;;;5017804;28;20193;-65
2023/06/24 06:02:13;;;;;;;2.23;0.70;;;23.10;31.80;;;;;;5011129;28;20514;-65
2023/06/24 06:04:40;;;;;;;2.30;1.30;;;22.80;32.30;;;;;;5009980;28;20260;-66
2023/06/24 06:07:08;;;;;;;2.07;1.23;;;22.80;33.00;;;;;;5012972;28;20189;-65
2023/06/24 06:09:35;;;;;;;0.67;0.67;;;22.70;33.40;;;;;;5015813;28;20189;-66
2023/06/24 06:12:03;;;;;;;1.73;0.80;;;21.70;34.90;;;;;;5015175;28;20181;-67
2023/06/24 06:14:30;;;;;;;2.13;0.83;;;20.80;36.80;;;;;;5013411;28;20545;-66
2023/06/24 06:16:58;;;;;;;1.20;0.80;;;20.30;38.10;;;;;;5022323;28;20287;-66
2023/06/24 06:19:25;;;;;;;2.03;1.03;;;19.90;39.50;;;;;;5017340;28;21347;-65
2023/06/24 06:21:52;;;;;;;2.43;0.80;;;19.60;40.20;;;;;;5017492;28;20236;-66
2023/06/24 06:24:20;;;;;;;2.67;0.97;;;19.30;40.80;;;;;;5006158;28;20194;-65
2023/06/24 06:26:47;;;;;;;1.30;0.73;;;19.20;41.50;;;;;;5016337;28;20193;-66
2023/06/24 06:29:15;;;;;;;1.53;0.80;;;19.10;42.10;;;;;;5014702;28;20185;-66
2023/06/24 06:31:42;;;;;;;1.27;0.87;;;18.80;42.20;;;;;;5014414;28;20257;-67
2023/06/24 06:34:09;;;;;;;3.10;0.90;;;18.60;42.90;;;;;;5012260;28;20177;-66
2023/06/24 06:36:37;;;;;;;1.80;1.13;;;18.40;43.30;;;;;;5012253;28;20181;-65
2023/06/24 06:39:05;;;;;;;3.73;1.00;;;18.30;43.90;;;;;;5017552;28;20196;-66
2023/06/24 06:41:32;;;;;;;2.80;0.90;;;18.20;44.20;;;;;;5022454;28;20193;-67
2023/06/24 06:43:59;;;;;;;2.97;1.10;;;18.00;44.30;;;;;;5017792;28;20191;-67
2023/06/24 06:46:26;;;;;;;2.03;1.10;;;17.90;44.70;;;;;;5014705;28;20187;-67
2023/06/24 06:48:54;;;;;;;1.93;1.17;;;17.80;44.80;;;;;;5016791;28;20185;-67
2023/06/24 06:51:21;;;;;;;2.57;1.20;;;17.70;45.00;;;;;;5018822;28;20243;-67
2023/06/24 06:53:49;;;;;;;2.03;1.37;;;17.60;44.50;;;;;;5011530;28;20205;-66
2023/06/24 06:56:26;;;;;;;3.67;2.43;;;17.50;44.80;;;;;;5013301;28;20655;-66
2023/06/24 06:58:54;;;;;;;6.47;3.90;;;17.50;45.10;;;;;;5013146;28;20206;-66
2023/06/24 07:01:21;;;;;;;5.13;2.10;;;17.40;45.50;;;;;;5015153;28;20193;-67
2023/06/24 07:03:51;;;;;;;2.03;1.40;;;17.30;45.50;;;;;;5013306;28;20591;-66
2023/06/24 07:06:21;;;;;;;2.13;1.10;;;17.20;45.10;;;;;;5013352;28;20596;-69
2023/06/24 07:08:49;;;;;;;1.63;1.10;;;17.20;45.10;;;;;;5015106;28;20184;-65
2023/06/24 07:11:16;;;;;;;2.47;1.40;;;17.00;44.80;;;;;;5009303;28;20196;-68
2023/06/24 07:13:45;;;;;;;4.27;1.30;;;17.00;44.90;;;;;;5012167;28;20195;-65
2023/06/24 07:16:13;;;;;;;2.80;1.47;;;16.90;45.50;;;;;;5010014;28;20851;-66
2023/06/24 07:18:40;;;;;;;2.20;1.40;;;16.80;45.70;;;;;;5016090;28;20259;-69
2023/06/24 07:21:08;;;;;;;2.57;1.40;;;16.80;46.00;;;;;;5010256;28;20192;-67
2023/06/24 07:23:35;;;;;;;5.60;2.00;;;16.70;47.10;;;;;;5016304;28;20581;-66
2023/06/24 07:26:03;;;;;;;4.77;2.27;;;16.50;47.20;;;;;;5012553;28;20566;-67
2023/06/24 07:28:30;;;;;;;3.17;2.13;;;16.50;47.60;;;;;;5009151;28;20649;-66
2023/06/24 07:30:58;;;;;;;3.57;2.10;;;16.30;48.10;;;;;;5011995;28;20193;-66
2023/06/24 07:33:27;;;;;;;4.40;1.90;;;16.30;47.90;;;;;;5015976;28;20198;-65
2023/06/24 07:35:54;;;;;;;3.87;2.10;;;16.30;47.40;;;;;;5013986;28;20180;-66
2023/06/24 07:38:22;;;;;;;3.90;2.47;;;16.30;48.10;;;;;;5015282;28;20221;-67
2023/06/24 07:40:49;;;;;;;4.07;2.23;;;16.20;47.70;;;;;;5010400;28;20208;-69
2023/06/24 07:43:17;;;;;;;4.97;2.20;;;16.20;47.70;;;;;;5009534;28;20739;-66
2023/06/24 07:45:44;;;;;;;5.03;2.20;;;16.10;47.80;;;;;;5012315;28;20221;-66
2023/06/24 07:48:12;;;;;;;5.33;2.30;;;16.00;48.00;;;;;;5008766;28;20242;-66
2023/06/24 07:50:40;;;;;;;4.73;1.97;;;16.00;47.80;;;;;;5010949;28;20189;-66
2023/06/24 07:53:08;;;;;;;2.43;1.87;;;15.90;47.80;;;;;;5016233;28;20539;-65
2023/06/24 07:55:35;;;;;;;5.20;2.00;;;15.90;47.80;;;;;;5017913;28;20185;-65
2023/06/24 07:58:03;;;;;;;4.17;2.10;;;15.80;47.50;;;;;;5017387;28;20210;-65
2023/06/24 08:00:30;;;;;;;5.87;1.77;;;15.80;47.50;;;;;;5014123;28;20235;-66
2023/06/24 08:03:00;;;;;;;2.73;1.77;;;15.70;47.10;;;;;;5006900;28;20268;-67
2023/06/24 08:05:28;;;;;;;1.93;1.60;;;15.80;46.10;;;;;;5015025;28;20222;-65
2023/06/24 08:07:55;;;;;;;3.63;1.83;;;15.80;46.10;;;;;;5014438;28;21358;-66
2023/06/24 08:10:23;;;;;;;4.53;2.10;;;15.80;46.30;;;;;;5010568;28;20231;-66
2023/06/24 08:12:50;;;;;;;2.70;1.97;;;15.80;45.60;;;;;;5013062;28;20709;-65
2023/06/24 08:15:19;;;;;;;3.03;2.00;;;15.80;45.70;;;;;;4999619;28;20672;-65
2023/06/24 08:17:53;;;;;;;2.77;1.60;;;15.80;45.70;;;;;;5010727;28;20295;-66
2023/06/24 08:20:24;;;;;;;2.80;1.80;;;15.80;45.20;;;;;;5014859;28;20190;-65
2023/06/24 08:22:52;;;;;;;2.80;2.13;;;15.80;45.60;;;;;;5013752;28;20222;-65
2023/06/24 08:25:19;;;;;;;4.33;2.33;;;15.70;45.90;;;;;;5012559;28;20218;-65
2023/06/24 08:27:47;;;;;;;3.00;2.40;;;15.60;46.30;;;;;;5011690;28;20589;-65
2023/06/24 08:30:15;;;;;;;3.07;2.20;;;15.60;46.20;;;;;;5013066;28;20231;-64
2023/06/24 08:32:43;;;;;;;2.73;2.47;;;15.50;46.40;;;;;;5014171;28;20191;-64
2023/06/24 08:35:11;;;;;;;2.90;2.07;;;15.40;46.40;;;;;;5010583;28;20187;-65
2023/06/24 08:37:40;;;;;;;3.10;2.57;;;15.40;46.60;;;;;;5012637;28;20241;-65
2023/06/24 08:40:08;;;;;;;3.87;2.53;;;15.30;47.00;;;;;;5014709;28;20678;-66
2023/06/24 08:42:36;;;;;;;3.00;2.40;;;15.20;47.50;;;;;;5007221;28;20554;-65
2023/06/24 08:45:03;;;;;;;4.10;2.50;;;15.10;47.90;;;;;;5014805;28;20185;-65
2023/06/24 08:47:32;;;;;;;3.27;2.10;;;15.00;48.40;;;;;;5014203;28;20185;-66
2023/06/24 08:50:08;;;;;;;4.10;2.37;;;14.90;48.60;;;;;;5010383;28;20193;-65
2023/06/24 08:52:38;;;;;;;3.97;3.00;;;14.90;48.40;;;;;;5019465;28;20215;-65
2023/06/24 08:55:07;;;;;;;3.97;3.20;;;14.80;48.70;;;;;;5006017;28;20189;-65
2023/06/24 08:57:34;;;;;;;6.43;3.77;;;14.80;48.70;;;;;;5005434;28;20227;-66
2023/06/24 09:00:03;;;;;;;4.37;2.77;;;14.70;48.90;;;;;;5013926;28;20185;-65
2023/06/24 09:02:32;;;;;;;4.20;3.17;;;14.70;48.70;;;;;;5018533;28;20181;-68
2023/06/24 09:05:01;;;;;;;6.47;3.77;;;14.70;48.40;;;;;;5005846;28;20225;-65
2023/06/24 09:07:29;;;;;;;5.33;3.60;;;14.70;48.70;;;;;;5009875;28;20747;-66
2023/06/24 09:09:56;;;;;;;3.70;2.90;;;14.60;48.50;;;;;;5016537;28;20287;-69
2023/06/24 09:12:26;;;;;;;3.43;2.90;;;14.50;48.40;;;;;;5016470;28;20254;-69
2023/06/24 09:14:53;;;;;;;6.27;3.90;;;14.50;48.40;;;;;;5011923;28;20220;-64
2023/06/24 09:17:22;;;;;;;6.43;4.37;;;14.40;48.70;;;;;;5009820;28;20847;-67
2023/06/24 09:19:52;;;;;;;8.57;6.33;;;14.30;48.70;;;;;;5011832;28;20192;-66
2023/06/24 09:22:20;;;;;;;6.90;5.23;;;14.30;48.40;;;;;;5018756;28;20189;-66
2023/06/24 09:24:49;;;;;;;5.23;3.33;;;14.30;48.30;;;;;;5014695;28;20193;-66
2023/06/24 09:27:23;;;;;;;5.37;4.00;;;14.30;47.40;;;;;;5015241;28;20188;-68
2023/06/24 09:29:51;;;;;;;6.10;4.57;;;14.20;48.00;;;;;;5011431;28;20212;-68
2023/06/24 09:32:19;;;;;;;6.47;4.33;;;14.20;47.00;;;;;;5011140;28;20200;-67
2023/06/24 09:34:48;;;;;;;6.13;3.37;;;14.20;47.70;;;;;;5009109;28;20193;-68
2023/06/24 09:37:30;;;;;;;4.17;3.07;;;14.20;47.80;;;;;;5008749;28;20216;-65
2023/06/24 09:39:58;;;;;;;3.17;2.40;;;14.10;47.90;;;;;;5004536;28;20644;-69
2023/06/24 09:42:25;;;;;;;4.53;3.20;;;14.00;48.10;;;;;;5014408;28;20197;-65
2023/06/24 09:44:56;;;;;;;5.63;3.93;;;14.00;48.30;;;;;;5021644;28;20698;-67
2023/06/24 09:47:28;;;;;;;4.93;3.47;;;13.90;48.40;;;;;;5016151;28;20185;-69
2023/06/24 09:49:55;;;;;;;5.67;4.00;;;13.80;48.80;;;;;;5014081;28;20247;-66
2023/06/24 09:52:23;;;;;;;8.40;4.53;;;13.80;48.90;;;;;;5015758;28;20188;-66
2023/06/24 09:54:53;;;;;;;5.10;4.03;;;13.70;49.50;;;;;;5015838;28;20541;-67
2023/06/24 09:57:29;;;;;;;5.07;3.33;;;13.70;50.00;;;;;;5016502;28;20290;-65
2023/06/24 09:59:57;;;;;;;4.63;3.53;;;13.60;50.30;;;;;;5017959;28;20204;-68
2023/06/24 10:02:25;;;;;;;3.83;3.07;;;13.50;51.30;;;;;;5012424;28;20192;-69
2023/06/24 10:04:54;;;;;;;5.30;2.83;;;13.40;50.20;;;;;;5011133;28;20291;-66
2023/06/24 10:07:21;;;;;;;5.93;3.37;;;13.40;50.40;;;;;;5014455;28;20189;-68
2023/06/24 10:09:49;;;;;;;5.20;3.43;;;13.30;51.00;;;;;;5019886;28;20280;-67
2023/06/24 10:12:16;;;;;;;6.23;2.93;;;13.20;51.40;;;;;;5020996;28;20580;-67
2023/06/24 10:14:44;;;;;;;3.83;2.60;;;13.20;51.50;;;;;;5021876;28;20594;-67
2023/06/24 10:17:12;;;;;;;3.27;2.70;;;13.00;51.40;;;;;;5014175;28;20225;-66
2023/06/24 10:19:41;;;;;;;4.53;3.03;;;13.00;51.70;;;;;;5019929;28;20188;-69
2023/06/24 10:22:13;;;;;;;4.20;3.10;;;12.90;52.50;;;;;;5013380;28;20243;-67
2023/06/24 10:24:44;;;;;;;4.63;3.27;;;12.90;52.50;;;;;;5017154;28;20189;-68
2023/06/24 10:27:21;;;;;;;6.80;4.80;;;12.90;53.60;;;;;;5015640;28;20189;-66
2023/06/24 10:29:53;;;;;;;8.63;5.20;;;12.90;53.90;;;;;;5020753;28;20668;-65
2023/06/24 10:32:23;;;;;;;9.63;5.40;;;12.80;54.20;;;;;;5014548;28;20193;-70
2023/06/24 10:34:57;;;;;;;10.93;6.57;;;12.80;53.60;;;;;;5020420;28;20188;-66
2023/06/24 10:37:31;;;;;;;10.87;5.70;;;12.80;54.20;;;;;;5016274;28;20221;-68
2023/06/24 10:40:02;;;;;;;6.10;4.30;;;12.80;53.00;;;;;;5018144;28;20185;-65
2023/06/24 10:42:43;;;;;;;6.63;3.77;;;12.80;53.30;;;;;;5018812;28;20697;-65
2023/06/24 10:45:10;;;;;;;5.63;3.80;;;12.80;52.50;;;;;;5013761;28;20181;-65
2023/06/24 10:47:46;;;;;;;3.93;3.40;;;12.80;52.30;;;;;;5014384;28;20190;-67
2023/06/24 10:50:16;;;;;;;4.93;3.90;;;12.90;52.40;;;;;;5016781;28;20235;-66
2023/06/24 10:52:45;;;;;;;7.53;4.20;;;12.90;51.50;;;;;;5015134;28;20182;-66
2023/06/24 10:55:17;;;;;;;5.13;3.30;;;12.90;51.50;;;;;;5014548;28;20216;-65
2023/06/24 10:57:45;;;;;;;5.03;3.37;;;12.90;50.90;;;;;;4997809;28;21081;-69
2023/06/24 11:00:14;;;;;;;4.93;3.57;;;12.90;50.80;;;;;;5017962;28;20189;-66
2023/06/24 11:02:41;;;;;;;3.73;3.03;;;12.90;51.20;;;;;;5012361;28;20586;-65
2023/06/24 11:05:09;;;;;;;6.00;3.30;;;12.90;50.60;;;;;;5012631;28;20224;-65
2023/06/24 11:07:39;;;;;;;3.70;2.70;;;12.90;51.00;;;;;;5012752;28;20709;-65
2023/06/24 11:10:08;;;;;;;3.43;2.87;;;12.90;50.80;;;;;;5018677;28;20184;-65
2023/06/24 11:12:37;;;;;;;3.77;2.80;;;12.90;50.90;;;;;;5010884;28;20663;-65
2023/06/24 11:15:10;;;;;;;3.43;3.10;;;12.90;51.20;;;;;;5021343;28;20193;-65
2023/06/24 11:17:38;;;;;;;3.93;2.80;;;12.80;51.50;;;;;;5010281;28;20582;-65
2023/06/24 11:20:10;;;;;;;4.07;3.00;;;12.80;52.40;;;;;;5013096;28;20212;-66
2023/06/24 11:22:37;;;;;;;4.57;3.20;;;12.60;53.20;;;;;;5017141;28;20208;-65
2023/06/24 11:25:05;;;;;;;3.93;3.10;;;12.50;54.00;;;;;;5012269;28;20187;-66
2023/06/24 11:27:33;;;;;;;4.20;3.47;;;12.40;54.70;;;;;;5016125;28;20263;-65
2023/06/24 11:30:04;;;;;;;5.37;3.37;;;12.30;54.90;;;;;;4997035;28;20190;-66
2023/06/24 11:32:42;;;;;;;4.20;3.57;;;12.30;56.00;;;;;;5011575;28;20200;-65
2023/06/24 11:35:12;;;;;;;5.93;3.40;;;12.20;56.30;;;;;;5010849;28;20677;-65
2023/06/24 11:37:45;;;;;;;5.70;3.73;;;12.10;57.00;;;;;;5014341;28;20264;-65
2023/06/24 11:40:16;;;;;;;5.83;3.60;;;12.10;57.70;;;;;;5009797;28;20188;-64
2023/06/24 11:42:44;;;;;;;6.90;3.80;;;12.00;57.40;;;;;;5012994;28;20196;-65
2023/06/24 11:45:15;;;;;;;6.77;3.97;;;11.90;58.10;;;;;;5011978;28;20538;-64
2023/06/24 11:47:42;;;;;;;5.33;3.60;;;11.90;58.00;;;;;;5011550;28;20189;-64
2023/06/24 11:50:10;;;;;;;5.77;3.33;;;11.80;58.30;;;;;;5011572;28;20276;-64
2023/06/24 11:52:45;;;;;;;4.57;3.43;;;11.70;59.00;;;;;;5011799;28;20195;-66
2023/06/24 11:55:19;;;;;;;8.20;3.80;;;11.70;58.80;;;;;;5014604;28;20196;-63
2023/06/24 11:57:55;;;;;;;5.70;3.67;;;11.60;59.30;;;;;;5015278;28;20208;-65
2023/06/24 12:00:33;;;;;;;6.03;3.63;;;11.60;59.50;;;;;;5013938;28;20570;-65
2023/06/24 12:03:03;;;;;;;6.30;3.83;;;11.50;59.80;;;;;;5012690;28;20196;-64
2023/06/24 12:05:32;;;;;;;5.17;3.57;;;11.50;60.00;;;;;;5008218;28;20705;-66
2023/06/24 12:08:01;;;;;;;5.73;3.70;;;11.50;60.00;;;;;;5012220;28;20211;-65
2023/06/24 12:10:32;;;;;;;6.27;3.60;;;11.50;59.80;;;;;;5013274;28;20201;-64
2023/06/24 12:13:00;;;;;;;7.50;3.63;;;11.40;60.00;;;;;;5016979;28;20266;-65
2023/06/24 12:15:28;;;;;;;6.80;4.23;;;11.50;59.40;;;;;;5013916;28;20199;-65
2023/06/24 12:17:56;;;;;;;8.10;5.03;;;11.50;59.80;;;;;;5016022;28;20355;-65
2023/06/24 12:20:24;;;;;;;9.27;4.70;;;11.50;59.80;;;;;;4997405;28;20221;-65
2023/06/24 12:22:52;;;;;;;9.03;4.73;;;11.50;59.60;;;;;;5013640;28;20197;-65
2023/06/24 12:25:19;;;;;;;7.83;4.23;;;11.50;60.10;;;;;;5011536;28;20292;-64
2023/06/24 12:27:47;;;;;;;7.03;4.50;;;11.60;60.30;;;;;;5015773;28;20286;-65
2023/06/24 12:30:16;;;;;;;7.23;4.33;;;11.40;60.40;;;;;;5013156;28;20177;-65
2023/06/24 12:32:44;;;;;;;10.20;4.17;;;11.50;61.40;;;;;;5011311;28;20185;-65
2023/06/24 12:35:12;;;;;;;8.10;4.73;;;11.50;60.50;;;;;;5011374;28;20303;-65
2023/06/24 12:37:39;;;;;;;5.40;4.20;;;11.50;59.40;;;;;;5013215;28;20206;-66
2023/06/24 12:40:07;;;;;;;10.80;3.73;;;11.60;58.10;;;;;;5011358;28;20259;-65
2023/06/24 12:42:34;;;;;;;6.53;3.40;;;11.70;57.20;;;;;;5009464;28;20643;-69
2023/06/24 12:45:02;;;;;;;9.23;4.17;;;11.80;56.20;;;;;;5011448;28;21511;-70
2023/06/24 12:47:29;;;;;;;8.20;5.07;;;12.00;55.60;;;;;;5013237;28;20640;-69
2023/06/24 12:49:56;;;;;;;9.20;5.93;;;12.00;55.50;;;;;;5017993;28;20199;-69
2023/06/24 12:52:24;;;;;;;8.83;6.43;;;12.00;55.50;;;;;;4998924;28;20193;-67
2023/06/24 12:54:51;;;;;;;11.33;7.67;;;12.00;55.20;;;;;;5012514;28;20212;-68